Top 250   1.8 MHz   UTC   Spotter   Comment  
JH2FXK   1824.0   27 Apr 10:49   W3LPL   Heard in OR
LU8DPM   1819.0   27 Apr 10:27   K7SCX   599 CO - Calling CQ
JD1BOW   1819.0   27 Apr 09:53   JA0JHQ   cq
DU7ET   1831.5   27 Apr 09:38   DU7SWL   cq
TG9ANF   1838.0   27 Apr 04:36   W4NIK   JT65 CQ CQ EVEN
5V7P   1824.0   27 Apr 04:32   N6VR   Thier SR at
TG9ADQ   1838.0   27 Apr 04:18   W4NIK   CQ CQ JT65
EA6NB   1828.0   27 Apr 04:04   W3LPL   Heard in MA
5V7P   1824.0   27 Apr 03:53   W2MF   UP
W1AW   1802.5   27 Apr 03:48   G4UFK   349 in qrn
5V7P   1824.0   27 Apr 03:43   OK1FCJ   lets try....
EM0RSE   1841.0   27 Apr 03:24   UR5VKX   RTTY "MORSE-226"
EM0RSE   1841.0   27 Apr 03:18   US7VF  
5V7P   1824.0   27 Apr 03:15   SP8NR   cq up
5V7P   1824.2   27 Apr 03:09   SP3RBG   tnx
5V7P   1824.0   27 Apr 02:59   OK1FCJ   try...
5V7P   1824.0   27 Apr 02:28   OK1FCJ   lets try
TG9ANF   1838.0   27 Apr 02:26   W4NIK   JT65 CQ CQ
EM0RSE   1841.0   27 Apr 01:53   UR8MH   RTTY NIKOLAY Ukraine
RA6AN   1828.6   27 Apr 01:49   SP4AWE   tnx Fed
EM0RSE   1841.0   27 Apr 01:48   US7VF  
SP3HLM   1824.0   27 Apr 01:34   SP4AWE   jakis idiota wpisuje
SP3HLM   1824.0   27 Apr 01:33   SP4AWE   Czessiu to nie byl moj spot!
5V7P   1824.0   26 Apr 23:24   SP3HLM   Fb sig. but gone QRT?
5V7P   1824.0   26 Apr 23:20   YU1EA   cq
5V7P   1824.0   26 Apr 23:17   OZ4VV   tu qso up
LU8HGI   1838.0   26 Apr 23:16   LU8HGI   cq cq cq jt65 tx odd
SP3HLM   1824.0   26 Apr 23:18   SP4AWE   ego idiot
5V7P   1824.0   26 Apr 23:13   SP3HLM   Up
DF4FQ   1817.5   26 Apr 22:55   LU8DPM   Thanks rpt,call to Ross,73
LU8DPM   1817.5   26 Apr 22:53   DF4FQ   swl rst 449
LX/OO9O   1825.0   26 Apr 22:40   LU8DPM   Pse listen SA,thanks,73
LX/OO9O   1825.0   26 Apr 22:29   ON5FP   cq
LX1DA   1838.0   26 Apr 22:05   OM3PR   jt65 tnx qso Andy
5V7P   1824.0   26 Apr 21:59   IZ7JVR   tnx up
5V7P   1824.0   26 Apr 21:55   RD3K   QSX 1825.40
EM0RSE   1841.0   26 Apr 21:49   US7VF   rtty
IO0MDC   1848.0   26 Apr 21:24   F4HMV   59 Tks
IO0MDC   1848.0   26 Apr 21:23   OH1AXT   tnx booming sig
5V7P   1824.0   26 Apr 21:22   IK0FVC   tnx qso! 1.5 up great op
IO0MDC   1848.0   26 Apr 21:16   IW0QO   MDXC CELEBRATE ITS 20TH ANNIVE
IO0MDC   1848.0   26 Apr 21:14   IK0XBX  
EM0RSE   1841.0   26 Apr 21:07   US7VF   bpsk31
PY3ZVN   1800.0   26 Apr 20:58   IZ2KTE   tnx Vlad 73
4Z4KX   1820.0   26 Apr 20:57   4Z4KX   any copy
5V7P   1824.0   26 Apr 20:51   IT9TJH   cqing UP
A25UK   1833.0   26 Apr 20:49   ZS2DL   When TB?
YL2GB   1850.0   26 Apr 20:18   UR5ZKB   tnx QSO
5Z4/DL2RMC   1838.0   26 Apr 20:15   JA4LKB   QRZ JA 1909
5Z4/DL2RMC   1838.0   26 Apr 20:09   JA3SWL   CQ JA,-22dB
R6AZ   1838.0   26 Apr 20:08   JA3SWL   JT65,WKG 5Z4/DL2RMC
RO25KL   1830.0   26 Apr 19:25   R1NW  
RO25KL   1830.0   26 Apr 19:18   R1NW   RDA KL-19
RA3RLM   1860.0   26 Apr 19:06   R9XM  
IQ8MD   1842.0   26 Apr 19:02   OK5HW   Tnx GL GDX 73!
ZL3NW   1821.5   26 Apr 18:58   I1EIS   449
DL20MDXC   1843.0   26 Apr 18:58   I4LCK   MDXC ufb !!!
IQ8MD   1842.0   26 Apr 18:57   IZ8XQC   RTTY MDXC AWARD
ZL3NW   1821.5   26 Apr 18:54   SM0BRF   CQ building
DL20MDXC   1843.0   26 Apr 18:53   DL5ST   cq rtty
IQ8MD   1842.0   26 Apr 18:53   I4LCK   rtty MDXC
IQ8MD   1842.0   26 Apr 18:50   IZ8FFA   MDXC Award -RTTY
3Z14PRLK   1820.0   26 Apr 18:43   SP6NIP   CQ CW
RO25RO   1853.0   26 Apr 18:42   RC7M   RO-65
5V7P   1800.0   26 Apr 18:30   OK6DJ   power blackout
A25UK   1808.6   26 Apr 16:52   OH5O   up strong
KH6DX   1823.5   26 Apr 14:20   JE1SPY   CQ
JH1HDT   1824.4   26 Apr 12:29   W6XI   CQ CQ vy nice sig in AZ
JH1HDT   1824.5   26 Apr 11:59   VK3IO   cq dx
JH1HDT   1824.5   26 Apr 11:47   W3LPL   Heard in OR
N7XM   1822.0   26 Apr 11:05   JA2NQG   CQ QRN here
E51DWC   1823.5   26 Apr 10:24   DU7SWL   tnx q60 qrv . now lsn 4 u !
E51DWC   1823.5   26 Apr 10:17   OK1DWC  
AA1K   1820.6   26 Apr 10:10   K3JJG   CQ DX @SR
DU7ET   1831.5   26 Apr 09:42   DU7SWL   cq
5V7P   1824.0   26 Apr 03:30   OK6DJ   up1
5V7P   1824.0   26 Apr 01:31   OM3SX   Prosim 160m QRV
5V7P   1824.0   26 Apr 01:08   OK1FCJ   trying :)
KK4CB   1838.0   26 Apr 00:27   WP4JCF   cq jt65...
5V7P   1824.0   25 Apr 23:28   OK1FCJ   qrn/static S9 later agn
UA5C   1822.2   25 Apr 23:25   RA6XN/P   CQ
UA3TCJ   1826.0   25 Apr 23:19   RA6XN/P   CQ
5V7P   1824.0   25 Apr 23:18   RD3K   QSX 1825.40
9M2AX   1817.5   25 Apr 22:57   G3XHZ   cq. 599
UN1L   1838.0   25 Apr 22:32   G0HDB   JT65 cq, -20dB
5V7P   1800.0   25 Apr 22:03   OK6DJ   qrn s9 static noise
5Z4/DL2RMC   1837.0   25 Apr 21:30   LX1DA   JT 65 gd signal To Tom new one
RM2D   1821.5   25 Apr 21:16   US8ICM   cq
IR1MDC   1837.0   25 Apr 21:04   IZ1BZV   rtty
R20MDXC   1843.0   25 Apr 21:04   RO2E   RTTY
IR1MDC   1837.0   25 Apr 21:04   IZ1MHY   RTTY - AWARD MDXC
SP3PWL   1820.0   25 Apr 20:48   SQ3JPV   Steam Locomotive Parade Award
GI4DOH   1819.1   25 Apr 20:31   F8CRS  
RO25KL   1825.0   25 Apr 20:27   R1NW   RDA KL-19
R20MDXC   1841.9   25 Apr 20:24   IK0PRG  
GI4DOH   1819.0   25 Apr 20:23   IZ8DBJ   tnx for qso!
GI4DOH   1819.0   25 Apr 20:17   IK0PRG  
DU7ET   1831.5   25 Apr 20:15   DU7SWL   cq
LX/OO9O   1825.0   25 Apr 20:03   UA4CR  
R20MDXC   1842.0   25 Apr 20:03   SV6JHA   tnx RY
R20MDC   1842.0   25 Apr 19:59   F8CRS  
OH2NT   1838.5   25 Apr 19:54   RU3KY   psk 31 cq
9M2AX   1817.5   25 Apr 19:50   VK3IO   cq dx
R20MDXC   1841.9   25 Apr 19:41   I4LCK   RTTY MDXC
R20MDXC   1842.0   25 Apr 19:33   DL3BXX   tnx rtty-qso
EU3AA   1838.0   25 Apr 19:27   JA3SWL   CQ JT65
R3AIR   1838.0   25 Apr 19:24   JA3SWL   JT65
R20MDXC   1842.0   25 Apr 19:21   RO2E   RTTY
ZS1C   1824.5   25 Apr 19:11   ZS2CX   now here
ZS1C   1825.0   25 Apr 19:11   ZS2CX   cqdx
RZ3AL   1838.0   25 Apr 19:07   JA3SWL   JT65,CLG LX1DA
UN7LZ   1838.0   25 Apr 19:06   JA3SWL   CQ JT65
ZL3NW   1821.5   25 Apr 18:53   I1EIS   349 QSB Echoes
CQ160JA   1838.0   25 Apr 18:49   RA3WDK   RX 1909
ZL3NW   1821.5   25 Apr 18:46   SM0BRF   CQ weak hr
R20MDXC   1841.0   25 Apr 18:28   DL3BXX   pse agn
R20MDXC   1841.0   25 Apr 18:07   RO2E   RTTY
R25SRR   1829.0   25 Apr 18:00   RG3K  
R20MDXC   1825.9   25 Apr 17:46   R9HAG   CQ CQ
R9WXK   1824.5   25 Apr 17:44   R9HAG   tnx QSO
OK0EV   1854.0   25 Apr 17:44   SQ6IUS  
R20MDXC   1822.5   25 Apr 17:28   UA3RKK   CQ CQ
R20MDXC   1822.5   25 Apr 17:15   RV9DC  
R20MDXC   1822.5   25 Apr 17:05   RO2E   cq cq cq
R25SRR   1825.0   25 Apr 17:02   UC4A   CQ
KD0FRL   1835.0   25 Apr 14:41   YV1FPT   TU 59
N7XM   1823.3   25 Apr 12:29   W6XI   CQ CQ DX
N7XM   1823.0   25 Apr 12:22   N7EKD   CQ
AA1K   1820.6   25 Apr 10:11   N4VN   CQ DX
K3UL   1823.7   25 Apr 10:03   N4VN   CQ DX
DU7ET   1831.5   25 Apr 09:37   DU7SWL   cq Cq CQ
NO3M   1819.2   25 Apr 04:45   ON7PQ   cq ...
YU6DX   1825.5   25 Apr 04:25   N7XM   calling 5V7P
5V7P   1824.0   25 Apr 04:08   K4NA   QSX 1826.15 moving up now
5V7P   1824.0   25 Apr 03:51   WD8JJA   up 2.9
SP3PWL   1820.1   25 Apr 03:49   SM6NT   tnx
SP3PWL   1820.0   25 Apr 03:49   SQ3JPV   Steam Locomotive Award
HB9CXZ   1838.0   25 Apr 03:48   NY2NY   JT65 - TU NEW ONE
5V7P   1824.0   25 Apr 03:41   W5XZ   fb sig in Tx
5V7P   1824.0   25 Apr 03:27   DK3DG   up fb signs
5V7P   1824.0   25 Apr 03:22   N8AID   up 3
5V7P   1824.0   25 Apr 03:22   SP2EWQ   pse, lsnt to EU...
HB9CXZ   1838.0   25 Apr 03:19   KK4CB   Hi Luis
5V7P   1824.0   25 Apr 03:10   SQ1OD   lsn up
5V7P   1824.0   25 Apr 03:10   K4WMS   up 2.5 Nice signal in VA
5V7P   1824.0   25 Apr 03:02   K8CX   UP 2.5 Loud
5V7P   1824.0   25 Apr 02:57   LA3MHA   up 1 vy qsb tnx
TG9ANF   1838.0   25 Apr 02:39   NY2NY   JT65 - TNX NEW ONE
5V7P   1824.0   25 Apr 02:21   KE5EE   Tnx up 1.7 73
5V7P   1824.0   25 Apr 02:21   OK1TP   fb sigs
TG9ANF   1838.0   25 Apr 02:15   WP4JCF   tu -22 in log,tnx,73
TG9ANF   1838.0   25 Apr 01:55   W4NIK   JT65 CQ CQ
5V7P   1824.0   25 Apr 01:39   OK8WW   sri, corr.
5V9P   1824.0   25 Apr 01:33   OK8WW   CQ strong
OK8WW   1823.9   25 Apr 01:37   K3JJG   CQ 339 / flutter
WP4JCF   1838.0   25 Apr 01:31   K3VAT   JT9 Strong
5V7P   1824.0   25 Apr 01:03   DL3JJ   ?? sleeping ??
G3PQA   1820.5   25 Apr 00:51   K3JJG   CQ DX skewed N
G3PQA   1821.1   25 Apr 00:50   DO8WA  
K3VAT   1838.0   25 Apr 00:27   K3VAT   JT65 CQ FM09
EW8RR   1827.0   25 Apr 00:10   DO8WA  
KK4CB   1838.0   25 Apr 00:06   WX2S   cq
5V7P   1824.0   24 Apr 23:54   DL3JJ   pse for EU !
ER3GQ   1825.0   24 Apr 22:44   ON6MH  
5P4MG   1850.0   24 Apr 22:09   R1BCH   59
5P4MG   1850.0   24 Apr 22:08   DL8UD   via DJ4MG EU-171
CT2GSN   1847.0   24 Apr 22:06   CT2HHM   CQCQDX
9M2AX   1817.7   24 Apr 22:03   DL2VBN   cq
UN7CBE   1855.0   24 Apr 22:01   R1BCH   57
5P4MG   1850.0   24 Apr 22:01   F4HMV   EU-171 Thanks Torsten 73s
I8YGZ   1830.0   24 Apr 21:56   9A2KI   Tnx
YL2GB   1855.0   24 Apr 21:53   R1BCH   Cq dx
II2MDC   1846.0   24 Apr 21:51   F4DSE  
5P4MG   1850.0   24 Apr 21:49   ON5HB   Good signal, 160 is booming!
LX1DA   1838.0   24 Apr 21:49   RA3WDK   Andy TNX ! 73!
II8MDC   1843.0   24 Apr 21:48   IZ2DLV   tu
5V7P   1824.0   24 Apr 21:47   OK1FCJ   qsy to 80
II8MDC   1843.0   24 Apr 21:44   IW0HLZ   CQ CQ SPECIAL CALL
5P4MG   1850.0   24 Apr 21:43   LB6FG  
II2MDC   1831.0   24 Apr 21:36   IZ2WYA   Ses MDXC AWARD CW
5P4MG   1850.0   24 Apr 21:36   F4DSE  
II8MDC   1843.0   24 Apr 21:35   IZ8IEV  
RO25KR   1834.0   24 Apr 21:34   OE1CIW   tnx for QSO simplex CQ SRR
5Z4/DL2RMC   1838.0   24 Apr 21:33   DK7DU   fb sign -10 dB
RO25KR   1834.0   24 Apr 21:31   RU6K  
RO25KR   1831.0   24 Apr 21:31   R7GW   TNX QSO 73!!
RO25KR   1831.0   24 Apr 21:26   RU6K  
DU7ET   1831.5   24 Apr 21:17   DU7SWL   cq cq
II8MDC   1843.0   24 Apr 21:10   RC7KY   CQ CQ CQ
II8MDC   1843.0   24 Apr 21:06   OK5HW   Tnx GL GDX 73!
5Z4/DL2RMC   1838.0   24 Apr 21:06   RA3WDK   TNX ! 73!
IK8HJC   1818.5   24 Apr 21:04   VK5SFA   Tnx for QSO Fabio
II8MDC   1843.0   24 Apr 21:01   II8MDC   MDXC celebrate its 20th anniversary
II8MDC   1843.0   24 Apr 21:01   IK4RAS   Grazie del contatto 73
II2MDC   1844.0   24 Apr 20:49   F4HMV   59
II2MDC   1843.0   24 Apr 20:45   EA5JK   5-9
II2MDC   1843.0   24 Apr 20:42   IK4RAS   grazie del contatto 73
II2MDC   1843.0   24 Apr 20:42   IZ2WYA   See 20th Years Foundation Mdxc
RD1AH   1834.0   24 Apr 20:40   RD1AH   ?Q!CQ!CQ!25 YEARS SSR!only bpsk 63
RM25MS   1821.0   24 Apr 20:38   RD3F  
5Z4/DL2RMC   1838.0   24 Apr 20:34   JA4LKB   PSE QSX1909
5Z4/DL2RMC   1838.0   24 Apr 20:31   JA4LKB   PSE 1909 QSX
RM25MS   1821.0   24 Apr 20:31   RD3F   CW
RM25MS   1857.3   24 Apr 20:24   R3IAN   CQ
RM25MS   1857.3   24 Apr 20:24   RD3F  
YL2GB   1850.0   24 Apr 20:22   ON5HB   Very strong signal, thanks Val.
RM25MS   1857.3   24 Apr 20:13   RD3F   LSB
R20MDXC   1822.5   24 Apr 20:12   IZ8DBJ   tnx fer qso!
RA3WDK   1838.0   24 Apr 20:08   JA3SWL   JT65
9A4X   1838.0   24 Apr 20:08   JA3SWL   JT65
US3LX   1838.0   24 Apr 20:08   JA3SWL   JT65
4Z4KX   1830.0   24 Apr 20:01   4Z4KX   cq
5Z4/DL2RMC   1838.0   24 Apr 19:58   JA3SWL   JT65,CQ JA
GB2MDC   1829.0   24 Apr 19:56   G4OOC   MDXC Award SES
5V7P   1824.0   24 Apr 19:56   LA7THA   TNX for QSO nice signal RST 559
5V7P   1824.0   24 Apr 19:55   DK1AX   tnx. week but workable
5Z4/DL2RMC   1838.0   24 Apr 19:50   JA3SWL   JT65,TKS 1909!!!
5V7P   1824.0   24 Apr 19:32   OK8WW   CQ
R20MDXC   1822.5   24 Apr 19:41   IZ8FQO  
DL2RMC   1838.0   24 Apr 19:41   JA3SWL   CQ JT65,PSE RX 1909
RA3W   1826.0   24 Apr 19:39   R5WW   25SRR
R20MDXC   1822.5   24 Apr 19:39   JG3IWL   339
DL2RMC   1838.0   24 Apr 19:30   JA3SWL   JT65,-16dB,RX 1909
RO25KL   1820.0   24 Apr 19:26   EU8C   tnx QSO
UA9FAR   1838.0   24 Apr 19:23   JA3SWL   CQ JT65,PSE QSX 1909KHZ
DL2RMC   1838.0   24 Apr 19:22   JA3SWL   JT65,PSE QSX 1909
R25SRR   1821.1   24 Apr 19:21   RA3SI  
R20MDXC   1822.5   24 Apr 19:19   VK4SC   cq
RO25KR   1830.0   24 Apr 19:18   UR5IRM   TNX QSO! 73! RDA RK-01
RO25KL   1820.0   24 Apr 19:16   R1NW   RDA KL-19
RO25KR   1855.0   24 Apr 19:06   RU6K  
YL2GB   1850.0   24 Apr 18:49   R2ZCA   tnx qso
YL2GB   1850.0   24 Apr 18:44   RA6ADQ   tnx QSO
RT90PK   1846.0   24 Apr 18:14   SV2AEG  
RT90PK   1846.0   24 Apr 18:06   RF3P  
R20MDXC   1822.5   24 Apr 17:30   RO2E   MDXC
UA0AGC   1819.8   24 Apr 14:58   R9HAG   CQ CQ
AA1K   1820.6   24 Apr 10:17   N4VN   CQ DX
KH6KG   1838.0   24 Apr 09:44   NF3R   jt65
DU7ET   1831.5   24 Apr 09:31   DU7SWL   cq
5V7P   1825.0   24 Apr 04:58   OK6DJ   up1
G4UFK   1824.0   24 Apr 04:50   K3JJG   Tks Alan...ur sig bldg nw
K3JJG   1824.0   24 Apr 04:48   G4UFK   tks Ed
N1UVK   1850.0   24 Apr 04:38   G4UFK   Jim with ve3xa 59
5V7P   1825.0   24 Apr 03:54   SV8CS   TNX NEW BAND
SV3RF   1821.0   24 Apr 03:53   K4NA   559 wid QRN at his SR
5V7P   1825.0   24 Apr 03:49   OK6DJ   up1
SV3RF   1821.0   24 Apr 03:34   N5AW   449 QRN INTX
SV3RF   1821.0   24 Apr 03:32   N5AW   449 IN QRN
KP4   1838.0   24 Apr 02:36   WP4JCF   chk nevada and new mexico...